Latest Weather Observations for Thargomindah

IDQ60801

Issued at 8:02 am EST Saturday 1 October 2016 (issued every 30 minutes, with the page automatically refreshed every 10 minutes)

About weather observations | Map of weather stations | Latest weather observations for QLD | Other Formats
Station Details ID: 045025 Name: THARGOMINDAH AIRPORT Lat: -27.99 Lon: 143.81 Height: 130.89 m
Data from the previous 72 hours. | See also: Recent months at Thargomindah
Date/Time
EST
Temp
°C
App
Temp
°C
Dew
Point
°C
Rel
Hum
%
Delta-T
°C
Wind Press
QNH
hPa
Press
MSL
hPa
Rain since
9am
mm
Dir  Spd
km/h
Gust
km/h
Spd
kts
Gust
kts
01/08:00am 13.9 10.3 3.1 48 4.9 NW 11 15 6 8 1015.8 - 0.0
01/07:30am 12.3 8.8 3.3 54 4.0 NNW 11 15 6 8 1015.4 - 0.0
01/07:00am 10.4 6.9 3.4 62 3.1 NNW 11 13 6 7 1014.9 - 0.0
01/06:30am 8.0 4.9 3.7 74 1.9 N 9 9 5 5 1014.4 - 0.0
01/06:00am 7.6 4.5 3.6 76 1.7 N 9 11 5 6 1014.0 1013.3 0.0
01/05:30am 7.4 4.8 3.3 75 1.7 NW 6 7 3 4 1013.5 - 0.0
01/05:00am 7.4 4.6 3.1 74 1.8 NNW 7 7 4 4 1013.2 - 0.0
01/04:30am 8.1 5.5 3.4 72 2.0 NNW 6 7 3 4 1012.7 - 0.0
01/04:00am 8.6 5.8 3.2 69 2.3 NW 7 7 4 4 1012.4 - 0.0
01/03:30am 8.2 5.2 2.2 66 2.5 NW 7 9 4 5 1012.1 - 0.0
01/03:00am 9.1 5.9 2.9 65 2.7 NW 9 11 5 6 1012.0 1011.4 0.0
01/02:30am 9.1 6.2 2.4 63 2.8 WNW 7 9 4 5 1012.0 - 0.0
01/02:00am 9.9 7.1 3.2 63 2.9 W 7 9 4 5 1011.7 - 0.0
01/01:30am 10.3 7.2 3.8 64 2.9 NNW 9 11 5 6 1011.1 - 0.0
01/01:00am 10.5 7.5 4.2 65 2.8 NNW 9 11 5 6 1011.6 - 0.0
01/12:30am 10.8 7.8 4.0 63 3.0 N 9 11 5 6 1011.8 - 0.0
01/12:00am 11.1 8.6 3.6 60 3.3 WNW 6 7 3 4 1012.2 1011.6 0.0
 
Date/Time
EST
Temp
°C
App
Temp
°C
Dew
Point
°C
Rel
Hum
%
Delta-T
°C
Wind Press
QNH
hPa
Press
MSL
hPa
Rain since
9am
mm
Dir  Spd
km/h
Gust
km/h
Spd
kts
Gust
kts
30/11:30pm 11.7 9.0 3.5 57 3.7 W 7 9 4 5 1012.1 - 0.0
30/11:00pm 12.1 9.4 3.6 56 3.8 W 7 9 4 5 1012.4 - 0.0
30/10:30pm 12.3 9.6 3.8 56 3.8 WNW 7 9 4 5 1012.2 - 0.0
30/10:00pm 13.1 9.9 3.2 51 4.4 NW 9 11 5 6 1012.1 - 0.0
30/09:30pm 13.4 10.2 2.9 49 4.7 WNW 9 11 5 6 1012.1 - 0.0
30/09:00pm 13.9 10.7 2.8 47 5.0 NW 9 11 5 6 1011.7 1011.2 0.0
30/08:30pm 14.8 11.5 2.4 43 5.5 WNW 9 11 5 6 1011.3 - 0.0
30/08:00pm 15.7 12.0 2.2 40 6.1 WNW 11 13 6 7 1011.1 - 0.0
30/07:30pm 16.1 12.4 2.2 39 6.3 WNW 11 13 6 7 1010.9 - 0.0
30/07:00pm 17.0 12.8 1.4 35 7.0 WNW 13 19 7 10 1010.7 - 0.0
30/06:30pm 17.7 12.7 1.2 33 7.4 WNW 17 22 9 12 1010.4 - 0.0
30/06:00pm 18.5 12.9 1.1 31 7.8 W 20 30 11 16 1010.2 1009.6 0.0
30/05:30pm 19.0 13.0 1.1 30 8.1 WNW 22 32 12 17 1010.0 - 0.0
30/05:00pm 19.4 13.4 0.9 29 8.3 W 22 33 12 18 1010.0 - 0.0
30/04:30pm 19.3 13.0 1.3 30 8.2 W 24 35 13 19 1010.1 - 0.0
30/04:00pm 19.8 12.7 1.3 29 8.4 WNW 28 35 15 19 1009.9 - 0.0
30/03:30pm 19.5 12.7 1.0 29 8.4 W 26 37 14 20 1009.8 - 0.0
30/03:00pm 19.4 12.6 0.9 29 8.3 W 26 33 14 18 1010.0 1009.4 0.0
30/02:30pm 19.0 13.0 1.1 30 8.1 W 22 33 12 18 1010.1 - 0.0
30/02:00pm 18.5 12.0 0.2 29 8.1 WNW 24 37 13 20 1010.3 - 0.0
30/01:30pm 17.9 10.7 0.6 31 7.6 W 28 43 15 23 1010.7 - 0.0
30/01:00pm 17.4 9.7 0.1 31 7.5 W 30 43 16 23 1010.8 - 0.0
30/12:30pm 16.8 9.1 0.0 32 7.3 W 30 43 16 23 1010.8 - 0.0
30/12:00pm 16.4 8.7 0.1 33 7.0 W 30 43 16 23 1011.0 1010.4 0.0
30/11:39am 16.5 9.2 -0.2 32 7.2 W 28 46 15 25 1011.2 - 0.0
30/11:30am 15.4 7.3 -0.4 34 6.7 WNW 32 46 17 25 1011.3 - 0.0
30/11:00am 15.4 8.0 -0.4 34 6.7 W 28 39 15 21 1011.5 - 0.0
30/10:30am 15.1 7.3 -0.6 34 6.6 W 30 46 16 25 1011.6 - 0.0
30/10:00am 14.4 6.4 0.3 38 6.0 W 32 50 17 27 1011.6 - 0.0
30/09:37am 13.7 5.6 -0.3 38 5.8 W 32 50 17 27 1011.7 - 0.0
30/09:30am 14.0 6.3 -0.1 38 5.9 W 30 43 16 23 1011.8 - 0.0
30/09:00am 13.0 4.4 0.1 41 5.4 W 35 50 19 27 1011.5 1010.9 0.0
30/08:52am 13.1 5.4 -0.2 40 5.5 W 30 48 16 26 1011.3 - 0.0
30/08:30am 12.9 4.7 0.3 42 5.3 W 33 46 18 25 1011.0 - 0.0
30/08:00am 12.6 4.5 0.0 42 5.2 W 32 43 17 23 1010.4 - 0.0
30/07:47am 12.3 4.2 -0.2 42 5.2 W 32 50 17 27 1010.2 - 0.0
30/07:30am 12.0 5.1 0.1 44 4.9 W 26 39 14 21 1010.0 - 0.0
30/07:00am 11.9 4.3 0.4 45 4.8 W 30 44 16 24 1009.6 - 0.0
30/06:30am 11.7 4.8 0.2 45 4.8 W 26 35 14 19 1009.2 - 0.0
30/06:00am 11.7 6.0 0.8 47 4.6 W 20 30 11 16 1008.6 1008.0 0.0
30/05:30am 11.4 5.9 0.5 47 4.5 WNW 19 24 10 13 1008.3 - 0.0
30/05:00am 11.3 5.7 0.1 46 4.6 WNW 19 24 10 13 1007.6 - 0.0
30/04:30am 11.4 6.2 0.2 46 4.6 WNW 17 24 9 13 1007.4 - 0.0
30/04:00am 10.7 5.9 -0.1 47 4.4 NW 15 19 8 10 1007.2 - 0.0
30/03:30am 10.7 5.4 -0.7 45 4.6 NW 17 22 9 12 1007.3 - 0.0
30/03:00am 10.7 5.0 -0.7 45 4.6 NW 19 24 10 13 1007.3 1006.8 0.0
30/02:30am 10.8 5.5 -0.6 45 4.6 NW 17 22 9 12 1007.5 - 0.0
30/02:00am 11.0 6.5 -0.5 45 4.6 NW 13 19 7 10 1007.8 - 0.0
30/01:30am 11.7 6.5 -0.1 44 4.8 NW 17 22 9 12 1008.1 - 0.0
30/01:00am 12.4 7.1 -0.5 41 5.3 WNW 17 22 9 12 1008.6 - 0.0
30/12:30am 12.4 7.0 -1.1 39 5.5 WNW 17 24 9 13 1008.9 - 0.0
30/12:00am 12.7 7.3 -1.2 38 5.6 WNW 17 24 9 13 1008.9 1008.3 0.0
 
Date/Time
EST
Temp
°C
App
Temp
°C
Dew
Point
°C
Rel
Hum
%
Delta-T
°C
Wind Press
QNH
hPa
Press
MSL
hPa
Rain since
9am
mm
Dir  Spd
km/h
Gust
km/h
Spd
kts
Gust
kts
29/11:30pm 12.9 7.2 -1.1 38 5.7 WNW 19 26 10 14 1008.9 - 0.0
29/11:00pm 13.3 7.6 -1.1 37 5.9 WNW 19 30 10 16 1009.0 - 0.0
29/10:30pm 13.3 8.4 -0.7 38 5.8 WNW 15 20 8 11 1009.1 - 0.0
29/10:00pm 13.4 8.8 -1.0 37 5.9 WNW 13 19 7 10 1009.1 - 0.0
29/09:30pm 13.9 8.5 -1.7 34 6.3 WNW 17 22 9 12 1009.0 - 0.0
29/09:00pm 14.4 8.6 -1.6 33 6.5 WNW 19 26 10 14 1008.9 1008.3 0.0
29/08:30pm 14.8 9.0 -1.3 33 6.6 W 19 28 10 15 1008.6 - 0.0
29/08:00pm 15.0 9.6 -1.1 33 6.7 W 17 26 9 14 1008.3 - 0.0
29/07:30pm 15.3 8.9 -1.7 31 7.0 W 22 33 12 18 1007.7 - 0.0
29/07:00pm 15.8 8.6 -1.7 30 7.2 W 26 37 14 20 1007.3 - 0.0
29/06:30pm 16.2 8.1 -2.8 27 7.7 W 30 43 16 23 1006.7 - 0.0
29/06:00pm 16.9 8.4 -3.2 25 8.2 W 32 41 17 22 1006.2 1005.7 0.0
29/05:30pm 17.4 8.6 -3.9 23 8.5 W 33 48 18 26 1005.9 - 0.0
29/05:00pm 17.9 9.4 -3.5 23 8.7 W 32 44 17 24 1005.9 - 0.0
29/04:30pm 18.3 9.6 -3.2 23 8.8 W 33 54 18 29 1005.8 - 0.0
29/04:26pm 18.4 9.4 -2.5 24 8.7 W 35 54 19 29 1005.7 - 0.0
29/04:00pm 18.5 9.8 -3.6 22 9.0 W 33 50 18 27 1005.6 - 0.0
29/03:30pm 18.2 8.2 -4.5 21 9.1 W 39 63 21 34 1005.6 - 0.0
29/03:00pm 18.3 9.2 -3.8 22 9.0 W 35 56 19 30 1005.7 1005.1 0.0
29/02:33pm 18.4 9.5 -4.9 20 9.2 W 33 56 18 30 1005.8 - 0.0
29/02:30pm 18.8 10.0 -4.0 21 9.2 W 33 50 18 27 1005.7 - 0.0
29/02:00pm 18.3 9.1 -4.4 21 9.1 W 35 57 19 31 1006.1 - 0.0
29/01:33pm 18.0 8.9 -4.0 22 8.8 W 35 54 19 29 1006.4 - 0.0
29/01:30pm 18.8 9.8 -2.7 23 9.0 W 35 52 19 28 1006.5 - 0.0
29/01:07pm 17.8 8.7 -3.6 23 8.7 W 35 54 19 29 1007.0 - 0.0
29/01:00pm 18.8 9.9 -2.2 24 8.8 W 35 50 19 27 1007.1 - 0.0
29/12:31pm 17.8 9.8 -2.5 25 8.4 W 30 52 16 28 1007.1 - 0.0
29/12:30pm 17.9 10.3 -1.9 26 8.3 W 28 48 15 26 1007.1 - 0.0
29/12:00pm 17.0 7.9 -3.7 24 8.3 W 35 50 19 27 1007.4 1006.9 0.0
29/11:30am 16.9 7.9 -2.7 26 8.0 W 35 50 19 27 1007.7 - 0.0
29/11:00am 16.0 7.7 -2.0 29 7.4 W 32 52 17 28 1008.1 - 0.0
29/10:54am 16.2 7.9 -1.4 30 7.3 W 32 52 17 28 1008.1 - 0.0
29/10:30am 15.8 7.0 -1.3 31 7.1 WNW 35 52 19 28 1008.1 - 0.0
29/10:00am 15.4 6.9 -1.6 31 7.0 W 33 48 18 26 1008.2 - 0.0
29/09:30am 14.8 6.6 -1.3 33 6.6 W 32 46 17 25 1008.1 - 0.0
29/09:00am 14.5 6.2 -1.6 33 6.6 W 32 46 17 25 1007.9 1007.4 1.6
29/08:30am 13.8 5.6 -1.0 36 6.1 W 32 44 17 24 1007.8 - 1.6
29/08:16am 14.0 6.9 1.3 42 5.5 W 28 46 15 25 1007.6 - 1.6
29/08:00am 14.2 7.5 1.5 42 5.5 W 26 39 14 21 1007.3 - 1.6
29/07:30am 14.1 8.8 2.0 44 5.3 W 19 30 10 16 1007.1 - 1.6
29/07:00am 13.8 6.5 -0.3 38 5.9 W 28 39 15 21 1006.6 - 1.6
29/06:30am 14.3 8.9 4.3 51 4.6 W 22 32 12 17 1006.0 - 1.6
29/06:00am 14.6 8.4 4.3 50 4.8 WSW 26 46 14 25 1005.7 1005.1 1.6
29/05:57am 14.6 8.0 4.0 49 4.9 WSW 28 46 15 25 1005.6 - 1.6
29/05:30am 15.2 7.8 5.1 51 4.8 WSW 33 46 18 25 1005.6 - 1.6
29/05:00am 15.3 10.2 7.8 61 3.8 WSW 24 32 13 17 1004.9 - 1.6
29/04:30am 15.0 11.3 9.4 69 2.9 W 19 30 10 16 1004.3 - 1.6
29/04:00am 14.6 11.6 10.6 77 2.1 W 17 24 9 13 1003.6 - 1.6
29/03:30am 14.3 10.9 11.1 81 1.7 WSW 20 35 11 19 1003.1 - 1.6
29/03:04am 17.4 11.2 12.7 74 2.6 WSW 37 57 20 31 1002.9 - 0.6
29/03:00am 18.7 16.7 15.4 81 2.0 WNW 20 32 11 17 1002.0 1001.5 0.2
29/02:30am 18.4 14.4 15.3 82 1.8 NNW 30 41 16 22 1001.5 - 0.2
29/02:29am 18.4 14.4 15.3 82 1.8 NNW 30 48 16 26 1001.5 - 0.2
29/02:00am 18.9 15.0 14.4 75 2.6 N 28 39 15 21 1001.6 - 0.0
29/01:30am 19.2 13.8 14.0 72 3.0 N 35 46 19 25 1001.6 - 0.0
29/01:00am 19.2 14.1 13.8 71 3.1 N 33 46 18 25 1002.1 - 0.0
29/12:30am 19.1 14.3 13.9 72 3.0 N 32 39 17 21 1002.6 - 0.0
29/12:00am 19.2 13.7 13.6 70 3.2 N 35 46 19 25 1003.3 1002.8 0.0
 
Date/Time
EST
Temp
°C
App
Temp
°C
Dew
Point
°C
Rel
Hum
%
Delta-T
°C
Wind Press
QNH
hPa
Press
MSL
hPa
Rain since
9am
mm
Dir  Spd
km/h
Gust
km/h
Spd
kts
Gust
kts
28/11:30pm 19.4 13.9 13.6 69 3.3 N 35 46 19 25 1003.7 - 0.0
28/11:00pm 19.3 12.5 13.2 68 3.5 N 41 50 22 27 1004.0 - 0.0
28/10:30pm 19.2 14.0 12.7 66 3.7 N 32 41 17 22 1004.7 - 0.0
28/10:00pm 19.3 13.8 12.3 64 3.9 N 33 52 18 28 1005.0 - 0.0
28/09:59pm 19.3 13.8 12.6 65 3.8 N 33 52 18 28 1005.0 - 0.0
28/09:30pm 19.1 13.6 11.9 63 4.0 N 32 43 17 23 1005.6 - 0.0
28/09:00pm 19.0 13.2 11.6 62 4.1 N 33 43 18 23 1005.6 1005.0 0.0
28/08:30pm 19.1 12.9 11.4 61 4.2 N 35 48 19 26 1006.2 - 0.0
28/08:00pm 19.0 12.5 11.6 62 4.1 N 37 48 20 26 1006.5 - 0.0
28/07:30pm 18.7 13.2 12.0 65 3.7 N 32 48 17 26 1007.1 - 0.0
28/07:00pm 18.6 12.2 11.9 65 3.7 N 37 54 20 29 1007.3 - 0.0
28/06:55pm 18.6 12.3 12.4 67 3.5 N 37 56 20 30 1007.2 - 0.0
28/06:30pm 19.9 12.7 10.6 55 5.1 N 39 52 21 28 1007.3 - 0.0
28/06:10pm 20.6 15.0 10.1 51 5.7 N 30 48 16 26 1007.3 - 0.0
28/06:00pm 20.8 14.2 10.0 50 5.9 N 35 41 19 22 1007.5 1007.1 0.0
28/05:30pm 21.3 15.5 9.5 47 6.4 N 30 46 16 25 1007.8 - 0.0
28/05:00pm 21.9 13.5 9.1 44 6.9 NNW 43 56 23 30 1007.8 - 0.0
28/04:41pm 23.3 14.9 5.7 32 8.9 NNW 39 61 21 33 1007.5 - 0.0
28/04:30pm 23.5 15.4 5.4 31 9.2 N 37 52 20 28 1007.4 - 0.0
28/04:00pm 24.3 17.4 4.6 28 9.9 NNW 30 52 16 28 1007.4 - 0.0
28/03:36pm 24.5 17.6 4.8 28 9.9 N 30 48 16 26 1007.6 - 0.0
28/03:30pm 24.4 17.9 4.7 28 9.9 N 28 35 15 19 1007.6 - 0.0
28/03:00pm 25.0 19.3 4.7 27 10.3 N 24 35 13 19 1007.6 1007.1 0.0
28/02:36pm 26.3 19.6 3.5 23 11.4 N 28 46 15 25 1007.7 - 0.0
28/02:30pm 25.8 19.4 3.1 23 11.2 N 26 50 14 27 1007.8 - 0.0
28/02:18pm 26.1 18.7 2.1 21 11.6 N 30 52 16 28 1008.2 - 0.0
28/02:00pm 26.9 19.7 0.6 18 12.5 N 28 41 15 22 1008.3 - 0.0
28/01:30pm 26.8 19.3 1.3 19 12.3 N 30 39 16 21 1007.9 - 0.0
28/01:00pm 27.3 19.5 -0.7 16 13.0 N 30 41 16 22 1008.8 - 0.0
28/12:30pm 27.4 20.4 1.8 19 12.5 N 28 39 15 21 1009.2 - 0.0
28/12:00pm 26.5 19.2 2.4 21 11.8 N 30 41 16 22 1009.9 1009.3 0.0
28/11:30am 26.1 20.4 2.7 22 11.5 N 22 30 12 16 1010.5 - 0.0
28/11:00am 24.8 19.6 3.5 25 10.5 N 20 28 11 15 1011.2 - 0.0
28/10:30am 24.8 19.7 4.0 26 10.4 N 20 28 11 15 1011.9 - 0.0
28/10:00am 23.2 19.5 4.2 29 9.4 NNE 13 19 7 10 1012.5 - 0.0
28/09:30am 21.5 18.4 7.3 40 7.4 NNE 13 17 7 9 1013.1 - 0.0
28/09:00am 20.8 18.2 7.8 43 6.8 N 11 17 6 9 1013.3 1012.8 0.0
28/08:30am 19.4 16.6 6.8 44 6.4 NE 11 15 6 8 1013.2 - 0.0

Other Formats:

Comma delimited format used in spreadsheet applications
http://www.bom.gov.au/fwo/IDQ60801/IDQ60801.95492.axf

JavaScript Object Notation format (JSON) in row-major order
http://www.bom.gov.au/fwo/IDQ60801/IDQ60801.95492.json